createdAt,value
2023-12-24T00:00:16.310Z,8.4
2023-12-24T00:01:16.365Z,8.5
2023-12-24T00:02:16.370Z,8.5
2023-12-24T00:03:16.327Z,8.5
2023-12-24T00:04:16.326Z,8.5
2023-12-24T00:05:16.515Z,8.5
2023-12-24T00:06:16.419Z,8.5
2023-12-24T00:07:17.839Z,8.5
2023-12-24T00:08:20.772Z,8.5
2023-12-24T00:09:16.310Z,8.5
2023-12-24T00:10:16.318Z,8.5
2023-12-24T00:11:16.323Z,8.5
2023-12-24T00:12:16.316Z,8.5
2023-12-24T00:13:16.310Z,8.5
2023-12-24T00:14:16.499Z,8.5
2023-12-24T00:15:16.316Z,8.5
2023-12-24T00:16:16.329Z,8.5
2023-12-24T00:17:16.336Z,8.5
2023-12-24T00:18:16.487Z,8.5
2023-12-24T00:19:16.400Z,8.5
2023-12-24T00:20:16.413Z,8.5
2023-12-24T00:21:16.322Z,8.5
2023-12-24T00:22:16.319Z,8.5
2023-12-24T00:23:16.332Z,8.5
2023-12-24T00:24:16.322Z,8.5
2023-12-24T00:25:16.310Z,8.5
2023-12-24T00:26:16.378Z,8.5
2023-12-24T00:27:16.317Z,8.5
2023-12-24T00:28:17.696Z,8.5
2023-12-24T00:29:20.865Z,8.5
2023-12-24T00:30:16.342Z,8.5
2023-12-24T00:31:16.314Z,8.5
2023-12-24T00:32:16.365Z,8.5
2023-12-24T00:33:16.379Z,8.5
2023-12-24T00:34:16.352Z,8.5
2023-12-24T00:35:16.552Z,8.5
2023-12-24T00:36:16.307Z,8.5
2023-12-24T00:37:16.315Z,8.5
2023-12-24T00:38:16.433Z,8.6
2023-12-24T00:39:16.317Z,8.6
2023-12-24T00:40:16.312Z,8.6
2023-12-24T00:41:16.358Z,8.6
2023-12-24T00:42:16.305Z,8.6
2023-12-24T00:43:16.307Z,8.6
2023-12-24T00:44:16.371Z,8.6
2023-12-24T00:45:16.307Z,8.6
2023-12-24T00:46:16.310Z,8.6
2023-12-24T00:47:16.346Z,8.6
2023-12-24T00:48:16.386Z,8.6
2023-12-24T00:49:17.822Z,8.6
2023-12-24T00:50:21.014Z,8.6
2023-12-24T00:51:16.324Z,8.6
2023-12-24T00:52:16.313Z,8.6
2023-12-24T00:53:16.979Z,8.7
2023-12-24T00:54:16.306Z,8.7
2023-12-24T00:55:16.316Z,8.7
2023-12-24T00:56:16.612Z,8.7
2023-12-24T00:57:16.309Z,8.7
2023-12-24T00:58:16.333Z,8.7
2023-12-24T00:59:16.348Z,8.7
2023-12-24T01:00:16.302Z,8.7
2023-12-24T01:01:16.376Z,8.7
2023-12-24T01:02:16.329Z,8.7
2023-12-24T01:03:16.328Z,8.7
2023-12-24T01:04:16.314Z,8.7
2023-12-24T01:05:16.369Z,8.7
2023-12-24T01:06:16.476Z,8.7
2023-12-24T01:07:16.309Z,8.7
2023-12-24T01:08:16.330Z,8.7
2023-12-24T01:09:16.306Z,8.7
2023-12-24T01:10:18.046Z,8.7
2023-12-24T01:11:21.044Z,8.7
2023-12-24T01:12:16.307Z,8.7
2023-12-24T01:13:16.312Z,8.7
2023-12-24T01:14:16.323Z,8.7
2023-12-24T01:15:16.342Z,8.7
2023-12-24T01:16:16.321Z,8.7
2023-12-24T01:17:16.738Z,8.7
2023-12-24T01:18:16.410Z,8.7
2023-12-24T01:19:16.329Z,8.7
2023-12-24T01:20:16.365Z,8.7
2023-12-24T01:21:16.328Z,8.7
2023-12-24T01:22:16.322Z,8.7
2023-12-24T01:23:16.314Z,8.7
2023-12-24T01:24:16.326Z,8.7
2023-12-24T01:25:16.309Z,8.7
2023-12-24T01:26:16.388Z,8.7
2023-12-24T01:27:16.312Z,8.7
2023-12-24T01:28:16.318Z,8.7
2023-12-24T01:30:16.375Z,8.7
2023-12-24T01:31:17.930Z,8.7
2023-12-24T01:32:21.045Z,8.7
2023-12-24T01:33:16.410Z,8.7
2023-12-24T01:34:16.464Z,8.8
2023-12-24T01:35:16.335Z,8.7
2023-12-24T01:36:16.311Z,8.8
2023-12-24T01:37:16.312Z,8.8
2023-12-24T01:38:16.740Z,8.8
2023-12-24T01:39:16.325Z,8.8
2023-12-24T01:40:16.311Z,8.8
2023-12-24T01:41:16.325Z,8.8
2023-12-24T01:42:16.326Z,8.8
2023-12-24T01:44:16.350Z,8.8
2023-12-24T01:45:16.310Z,8.8
2023-12-24T01:46:16.310Z,8.8
2023-12-24T01:47:16.330Z,8.8
2023-12-24T01:48:16.360Z,8.8
2023-12-24T01:49:16.378Z,8.8
2023-12-24T01:50:16.333Z,8.9
2023-12-24T01:51:16.316Z,8.8
2023-12-24T01:52:18.036Z,8.8
2023-12-24T01:53:21.214Z,8.8
2023-12-24T01:54:19.211Z,8.8
2023-12-24T01:55:16.320Z,8.8
2023-12-24T01:56:16.323Z,8.9
2023-12-24T01:57:16.321Z,8.8
2023-12-24T01:58:16.313Z,8.8
2023-12-24T01:59:16.370Z,8.8
2023-12-24T02:00:16.333Z,8.8
2023-12-24T02:01:16.385Z,8.8
2023-12-24T02:02:16.350Z,8.8
2023-12-24T02:03:16.418Z,8.8
2023-12-24T02:04:16.496Z,8.8
2023-12-24T02:05:16.454Z,8.8
2023-12-24T02:06:16.464Z,8.8
2023-12-24T02:07:16.369Z,8.8
2023-12-24T02:08:16.562Z,8.8
2023-12-24T02:09:16.526Z,8.8
2023-12-24T02:10:16.431Z,8.8
2023-12-24T02:11:16.563Z,8.8
2023-12-24T02:12:16.436Z,8.8
2023-12-24T02:13:18.159Z,8.8
2023-12-24T02:14:21.271Z,8.8
2023-12-24T02:16:16.658Z,8.8
2023-12-24T02:17:16.691Z,8.8
2023-12-24T02:18:16.853Z,8.8
2023-12-24T02:19:16.662Z,8.8
2023-12-24T02:20:17.176Z,8.8
2023-12-24T02:21:16.323Z,8.8
2023-12-24T02:22:16.318Z,8.8
2023-12-24T02:23:16.356Z,8.8
2023-12-24T02:24:16.339Z,8.8
2023-12-24T02:25:16.321Z,8.8
2023-12-24T02:26:16.322Z,8.8
2023-12-24T02:27:16.323Z,8.8
2023-12-24T02:28:16.315Z,8.7
2023-12-24T02:29:16.396Z,8.7
2023-12-24T02:30:16.424Z,8.7
2023-12-24T02:31:16.312Z,8.7
2023-12-24T02:32:16.436Z,8.7
2023-12-24T02:33:16.459Z,8.7
2023-12-24T02:34:18.275Z,8.7
2023-12-24T02:35:21.182Z,8.7
2023-12-24T02:36:16.315Z,8.7
2023-12-24T02:37:16.318Z,8.7
2023-12-24T02:38:16.322Z,8.7
2023-12-24T02:39:16.311Z,8.6
2023-12-24T02:40:16.311Z,8.6
2023-12-24T02:41:16.324Z,8.6
2023-12-24T02:42:16.312Z,8.6
2023-12-24T02:43:16.312Z,8.5
2023-12-24T02:44:16.335Z,8.5
2023-12-24T02:45:16.315Z,8.5
2023-12-24T02:46:16.311Z,8.5
2023-12-24T02:47:16.374Z,8.5
2023-12-24T02:48:16.460Z,8.4
2023-12-24T02:49:16.352Z,8.4
2023-12-24T02:50:16.333Z,8.4
2023-12-24T02:51:16.438Z,8.4
2023-12-24T02:52:16.309Z,8.4
2023-12-24T02:53:16.332Z,8.4
2023-12-24T02:54:16.324Z,8.4
2023-12-24T02:55:18.375Z,8.4
2023-12-24T02:56:21.737Z,8.4
2023-12-24T02:57:16.321Z,8.4
2023-12-24T02:58:16.316Z,8.4
2023-12-24T02:59:16.346Z,8.4
2023-12-24T03:00:17.462Z,8.5
2023-12-24T03:01:16.320Z,8.5
2023-12-24T03:02:16.331Z,8.5
2023-12-24T03:03:16.337Z,8.5
2023-12-24T03:04:16.313Z,8.5
2023-12-24T03:05:16.367Z,8.5
2023-12-24T03:06:16.456Z,8.5
2023-12-24T03:07:16.321Z,8.6
2023-12-24T03:08:16.326Z,8.6
2023-12-24T03:09:16.313Z,8.6
2023-12-24T03:10:16.329Z,8.6
2023-12-24T03:11:16.327Z,8.6
2023-12-24T03:12:16.548Z,8.6
2023-12-24T03:13:16.318Z,8.6
2023-12-24T03:14:16.325Z,8.6
2023-12-24T03:15:16.319Z,8.6
2023-12-24T03:16:16.325Z,8.7
2023-12-24T03:17:16.386Z,8.7
2023-12-24T03:18:18.911Z,8.7
2023-12-24T03:19:22.057Z,8.7
2023-12-24T03:20:16.330Z,8.7
2023-12-24T03:21:16.310Z,8.7
2023-12-24T03:22:16.323Z,8.7
2023-12-24T03:23:16.305Z,8.7
2023-12-24T03:24:16.312Z,8.7
2023-12-24T03:25:16.331Z,8.7
2023-12-24T03:26:16.316Z,8.7
2023-12-24T03:27:16.316Z,8.7
2023-12-24T03:28:16.325Z,8.7
2023-12-24T03:29:16.316Z,8.8
2023-12-24T03:30:16.392Z,8.8
2023-12-24T03:31:17.660Z,8.8
2023-12-24T03:32:16.401Z,8.8
2023-12-24T03:33:16.346Z,8.8
2023-12-24T03:34:16.354Z,8.8
2023-12-24T03:35:16.355Z,8.8
2023-12-24T03:36:16.311Z,8.8
2023-12-24T03:37:16.308Z,8.8
2023-12-24T03:38:16.314Z,8.8
2023-12-24T03:39:18.774Z,8.8
2023-12-24T03:40:21.712Z,8.8
2023-12-24T03:41:16.344Z,8.8
2023-12-24T03:42:16.305Z,8.8
2023-12-24T03:43:16.302Z,8.8
2023-12-24T03:44:16.410Z,8.7
2023-12-24T03:45:16.309Z,8.7
2023-12-24T03:46:16.308Z,8.7
2023-12-24T03:47:16.336Z,8.7
2023-12-24T03:48:16.442Z,8.6
2023-12-24T03:49:16.457Z,8.6
2023-12-24T03:51:16.313Z,8.6
2023-12-24T03:52:16.309Z,8.6
2023-12-24T03:53:16.347Z,8.6
2023-12-24T03:54:16.327Z,8.6
2023-12-24T03:55:16.307Z,8.6
2023-12-24T03:56:16.320Z,8.6
2023-12-24T03:57:16.309Z,8.5
2023-12-24T03:58:16.309Z,8.5
2023-12-24T03:59:16.329Z,8.5
2023-12-24T04:00:18.990Z,8.5
2023-12-24T04:01:21.813Z,8.5
2023-12-24T04:02:16.355Z,8.5
2023-12-24T04:03:16.330Z,8.5
2023-12-24T04:04:16.315Z,8.5
2023-12-24T04:05:16.328Z,8.5
2023-12-24T04:06:16.369Z,8.5
2023-12-24T04:07:16.317Z,8.5
2023-12-24T04:08:16.320Z,8.5
2023-12-24T04:09:16.302Z,8.5
2023-12-24T04:10:16.457Z,8.5
2023-12-24T04:11:16.319Z,8.5
2023-12-24T04:12:16.311Z,8.5
2023-12-24T04:13:16.343Z,8.5
2023-12-24T04:14:16.367Z,8.4
2023-12-24T04:15:16.321Z,8.4
2023-12-24T04:16:16.302Z,8.4
2023-12-24T04:17:16.314Z,8.4
2023-12-24T04:18:16.360Z,8.4
2023-12-24T04:19:16.347Z,8.4
2023-12-24T04:20:16.326Z,8.4
2023-12-24T04:21:19.003Z,8.4
2023-12-24T04:22:21.869Z,8.4
2023-12-24T04:23:16.412Z,8.4
2023-12-24T04:24:16.302Z,8.4
2023-12-24T04:25:16.576Z,8.4
2023-12-24T04:26:16.612Z,8.4
2023-12-24T04:27:16.326Z,8.4
2023-12-24T04:28:16.307Z,8.4
2023-12-24T04:29:16.344Z,8.4
2023-12-24T04:30:16.361Z,8.4
2023-12-24T04:31:16.585Z,8.4
2023-12-24T04:32:16.359Z,8.4
2023-12-24T04:33:16.423Z,8.4
2023-12-24T04:34:16.453Z,8.4
2023-12-24T04:35:16.353Z,8.4
2023-12-24T04:36:16.315Z,8.4
2023-12-24T04:37:16.321Z,8.4
2023-12-24T04:38:16.353Z,8.5
2023-12-24T04:39:16.324Z,8.4
2023-12-24T04:40:16.329Z,8.4
2023-12-24T04:41:16.333Z,8.4
2023-12-24T04:42:19.113Z,8.4
2023-12-24T04:43:22.391Z,8.4
2023-12-24T04:44:16.370Z,8.4
2023-12-24T04:45:16.323Z,8.4
2023-12-24T04:46:16.317Z,8.4
2023-12-24T04:47:16.378Z,8.4
2023-12-24T04:48:16.363Z,8.4
2023-12-24T04:49:16.399Z,8.4
2023-12-24T04:50:16.346Z,8.4
2023-12-24T04:51:16.328Z,8.4
2023-12-24T04:52:16.605Z,8.4
2023-12-24T04:53:16.332Z,8.4
2023-12-24T04:54:16.321Z,8.4
2023-12-24T04:55:16.317Z,8.4
2023-12-24T04:56:16.322Z,8.4
2023-12-24T04:57:16.313Z,8.4
2023-12-24T04:58:16.324Z,8.4
2023-12-24T04:59:16.349Z,8.4
2023-12-24T05:00:16.324Z,8.4
2023-12-24T05:01:16.330Z,8.4
2023-12-24T05:02:16.335Z,8.5
2023-12-24T05:03:19.219Z,8.5
2023-12-24T05:04:22.168Z,8.5
2023-12-24T05:05:16.379Z,8.5
2023-12-24T05:06:16.335Z,8.5
2023-12-24T05:07:16.319Z,8.4
2023-12-24T05:08:16.331Z,8.5
2023-12-24T05:09:16.322Z,8.5
2023-12-24T05:10:16.314Z,8.4
2023-12-24T05:11:16.322Z,8.4
2023-12-24T05:12:16.319Z,8.4
2023-12-24T05:13:16.722Z,8.4
2023-12-24T05:14:16.340Z,8.4
2023-12-24T05:15:16.320Z,8.4
2023-12-24T05:16:16.316Z,8.4
2023-12-24T05:17:16.347Z,8.4
2023-12-24T05:18:16.362Z,8.4
2023-12-24T05:19:16.358Z,8.4
2023-12-24T05:20:16.351Z,8.4
2023-12-24T05:21:16.309Z,8.4
2023-12-24T05:22:16.316Z,8.4
2023-12-24T05:23:16.346Z,8.4
2023-12-24T05:24:19.258Z,8.4
2023-12-24T05:25:22.144Z,8.4
2023-12-24T05:26:16.364Z,8.4
2023-12-24T05:27:16.342Z,8.4
2023-12-24T05:28:16.316Z,8.4
2023-12-24T05:29:16.355Z,8.4
2023-12-24T05:30:16.344Z,8.4
2023-12-24T05:31:16.312Z,8.4
2023-12-24T05:32:16.328Z,8.4
2023-12-24T05:33:16.392Z,8.4
2023-12-24T05:34:16.702Z,8.4
2023-12-24T05:35:16.427Z,8.4
2023-12-24T05:36:16.309Z,8.4
2023-12-24T05:37:16.319Z,8.4
2023-12-24T05:38:16.343Z,8.4
2023-12-24T05:39:16.329Z,8.4
2023-12-24T05:40:16.310Z,8.4
2023-12-24T05:41:16.324Z,8.4
2023-12-24T05:42:16.313Z,8.5
2023-12-24T05:43:16.320Z,8.5
2023-12-24T05:44:16.336Z,8.5
2023-12-24T05:45:19.319Z,8.5
2023-12-24T05:46:22.214Z,8.5
2023-12-24T05:47:16.330Z,8.5
2023-12-24T05:48:16.322Z,8.5
2023-12-24T05:49:16.325Z,8.6
2023-12-24T05:50:16.330Z,8.6
2023-12-24T05:51:16.311Z,8.6
2023-12-24T05:52:16.306Z,8.6
2023-12-24T05:53:16.337Z,8.6
2023-12-24T05:54:16.311Z,8.6
2023-12-24T05:55:16.312Z,8.6
2023-12-24T05:56:16.332Z,8.6
2023-12-24T05:57:16.308Z,8.6
2023-12-24T05:58:16.315Z,8.6
2023-12-24T05:59:16.333Z,8.6
2023-12-24T06:00:16.311Z,8.6
2023-12-24T06:01:16.329Z,8.6
2023-12-24T06:02:16.316Z,8.6
2023-12-24T06:03:16.322Z,8.6
2023-12-24T06:04:16.324Z,8.6
2023-12-24T06:05:16.413Z,8.6
2023-12-24T06:06:19.680Z,8.7
2023-12-24T06:07:22.458Z,8.7
2023-12-24T06:08:16.324Z,8.7
2023-12-24T06:09:16.370Z,8.7
2023-12-24T06:10:16.322Z,8.7
2023-12-24T06:11:16.341Z,8.7
2023-12-24T06:12:16.492Z,8.7
2023-12-24T06:13:16.308Z,8.7
2023-12-24T06:14:16.352Z,8.7
2023-12-24T06:15:16.364Z,8.7
2023-12-24T06:16:16.324Z,8.7
2023-12-24T06:17:16.382Z,8.7
2023-12-24T06:18:16.468Z,8.8
2023-12-24T06:19:17.747Z,8.8
2023-12-24T06:20:16.353Z,8.8
2023-12-24T06:21:16.340Z,8.8
2023-12-24T06:22:16.332Z,8.8
2023-12-24T06:23:16.335Z,8.9
2023-12-24T06:24:16.322Z,8.9
2023-12-24T06:25:16.313Z,8.9
2023-12-24T06:26:16.341Z,8.9
2023-12-24T06:27:16.326Z,8.9
2023-12-24T06:28:16.779Z,8.9
2023-12-24T06:29:19.995Z,8.9
2023-12-24T06:30:22.976Z,8.9
2023-12-24T06:31:16.310Z,9
2023-12-24T06:32:16.361Z,9
2023-12-24T06:33:16.388Z,9
2023-12-24T06:34:16.338Z,9
2023-12-24T06:35:16.353Z,9
2023-12-24T06:36:16.321Z,9
2023-12-24T06:37:16.317Z,9
2023-12-24T06:38:16.334Z,9
2023-12-24T06:39:16.307Z,9
2023-12-24T06:40:16.308Z,9
2023-12-24T06:41:16.327Z,9
2023-12-24T06:42:16.335Z,9
2023-12-24T06:43:16.316Z,9
2023-12-24T06:44:16.334Z,9
2023-12-24T06:45:16.315Z,9.1
2023-12-24T06:46:16.313Z,9.1
2023-12-24T06:47:16.318Z,9
2023-12-24T06:48:16.391Z,9.1
2023-12-24T06:49:17.242Z,9.1
2023-12-24T06:50:20.084Z,9.1
2023-12-24T06:51:23.212Z,9
2023-12-24T06:52:16.307Z,9.1
2023-12-24T06:53:16.354Z,9
2023-12-24T06:54:16.316Z,9
2023-12-24T06:55:16.314Z,9
2023-12-24T06:56:16.344Z,9
2023-12-24T06:57:16.318Z,9
2023-12-24T06:58:16.329Z,9.1
2023-12-24T07:00:16.314Z,9.1
2023-12-24T07:01:16.390Z,9.1
2023-12-24T07:02:16.334Z,9.1
2023-12-24T07:03:16.442Z,9.1
2023-12-24T07:04:16.310Z,9.1
2023-12-24T07:05:16.323Z,9.1
2023-12-24T07:06:16.332Z,9.1
2023-12-24T07:07:16.312Z,9.1
2023-12-24T07:08:16.376Z,9.1
2023-12-24T07:09:16.307Z,9.1
2023-12-24T07:10:17.319Z,9.1
2023-12-24T07:11:20.109Z,9.1
2023-12-24T07:12:23.536Z,9.1
2023-12-24T07:13:16.333Z,9.1
2023-12-24T07:14:16.540Z,9.1
2023-12-24T07:15:16.329Z,9.1
2023-12-24T07:16:16.309Z,9.1
2023-12-24T07:17:16.359Z,9.1
2023-12-24T07:18:16.436Z,9.1
2023-12-24T07:19:16.360Z,9.1
2023-12-24T07:20:16.333Z,9.2
2023-12-24T07:21:16.317Z,9.2
2023-12-24T07:22:16.312Z,9.2
2023-12-24T07:23:16.360Z,9.2
2023-12-24T07:24:16.517Z,9.2
2023-12-24T07:25:16.313Z,9.2
2023-12-24T07:26:16.397Z,9.2
2023-12-24T07:27:16.311Z,9.2
2023-12-24T07:28:16.312Z,9.2
2023-12-24T07:29:16.325Z,9.3
2023-12-24T07:30:16.352Z,9.3
2023-12-24T07:31:17.105Z,9.3
2023-12-24T07:32:20.309Z,9.3
2023-12-24T07:33:23.529Z,9.3
2023-12-24T07:34:16.406Z,9.3
2023-12-24T07:35:16.361Z,9.3
2023-12-24T07:36:16.311Z,9.3
2023-12-24T07:37:16.308Z,9.3
2023-12-24T07:38:16.335Z,9.3
2023-12-24T07:39:16.313Z,9.4
2023-12-24T07:40:16.340Z,9.4
2023-12-24T07:41:16.322Z,9.4
2023-12-24T07:42:16.328Z,9.4
2023-12-24T07:43:16.320Z,9.4
2023-12-24T07:44:16.346Z,9.4
2023-12-24T07:45:16.544Z,9.4
2023-12-24T07:47:16.328Z,9.5
2023-12-24T07:48:16.380Z,9.5
2023-12-24T07:49:16.378Z,9.5
2023-12-24T07:50:16.401Z,9.5
2023-12-24T07:51:16.310Z,9.5
2023-12-24T07:52:17.167Z,9.5
2023-12-24T07:53:20.341Z,9.5
2023-12-24T07:54:23.237Z,9.5
2023-12-24T07:55:16.337Z,9.5
2023-12-24T07:56:16.354Z,9.5
2023-12-24T07:57:16.313Z,9.5
2023-12-24T07:58:16.312Z,9.5
2023-12-24T07:59:16.311Z,9.5
2023-12-24T08:00:17.997Z,9.5
2023-12-24T08:01:16.356Z,9.6
2023-12-24T08:02:16.352Z,9.5
2023-12-24T08:03:16.322Z,9.5
2023-12-24T08:04:16.315Z,9.5
2023-12-24T08:05:16.382Z,9.6
2023-12-24T08:06:22.645Z,9.6
2023-12-24T08:07:16.364Z,9.6
2023-12-24T08:08:16.354Z,9.6
2023-12-24T08:09:16.314Z,9.6
2023-12-24T08:10:16.318Z,9.6
2023-12-24T08:11:17.184Z,9.6
2023-12-24T08:12:16.314Z,9.6
2023-12-24T08:13:17.441Z,9.6
2023-12-24T08:14:20.429Z,9.6
2023-12-24T08:15:23.446Z,9.6
2023-12-24T08:16:16.318Z,9.6
2023-12-24T08:17:16.338Z,9.6
2023-12-24T08:18:16.711Z,9.6
2023-12-24T08:19:16.398Z,9.7
2023-12-24T08:20:16.354Z,9.7
2023-12-24T08:21:16.308Z,9.7
2023-12-24T08:22:16.309Z,9.7
2023-12-24T08:23:16.325Z,9.7
2023-12-24T08:24:16.305Z,9.7
2023-12-24T08:25:16.315Z,9.7
2023-12-24T08:26:16.326Z,9.7
2023-12-24T08:27:16.691Z,9.7
2023-12-24T08:28:16.307Z,9.7
2023-12-24T08:29:16.333Z,9.7
2023-12-24T08:30:16.343Z,9.7
2023-12-24T08:31:16.308Z,9.8
2023-12-24T08:32:16.312Z,9.8
2023-12-24T08:33:16.427Z,9.8
2023-12-24T08:34:17.465Z,9.8
2023-12-24T08:35:20.452Z,9.8
2023-12-24T08:36:23.533Z,9.8
2023-12-24T08:37:16.314Z,9.8
2023-12-24T08:38:16.357Z,9.8
2023-12-24T08:39:16.322Z,9.8
2023-12-24T08:40:16.312Z,9.8
2023-12-24T08:41:16.310Z,9.8
2023-12-24T08:42:16.324Z,9.8
2023-12-24T08:43:16.304Z,9.8
2023-12-24T08:44:16.374Z,9.8
2023-12-24T08:45:16.317Z,9.8
2023-12-24T08:46:16.327Z,9.8
2023-12-24T08:47:16.349Z,9.8
2023-12-24T08:48:16.539Z,9.8
2023-12-24T08:49:16.420Z,9.8
2023-12-24T08:50:16.336Z,9.8
2023-12-24T08:51:16.319Z,9.8
2023-12-24T08:52:16.309Z,9.8
2023-12-24T08:53:16.347Z,9.8
2023-12-24T08:54:16.354Z,9.8
2023-12-24T08:55:17.792Z,9.8
2023-12-24T08:56:20.609Z,9.8
2023-12-24T08:57:23.525Z,9.8
2023-12-24T08:59:16.344Z,9.9
2023-12-24T09:00:16.313Z,9.9
2023-12-24T09:01:16.346Z,9.9
2023-12-24T09:02:16.380Z,9.9
2023-12-24T09:03:16.381Z,9.9
2023-12-24T09:04:16.331Z,9.9
2023-12-24T09:06:16.400Z,9.9
2023-12-24T09:07:16.343Z,9.9
2023-12-24T09:08:16.363Z,9.9
2023-12-24T09:09:16.341Z,9.9
2023-12-24T09:11:16.463Z,9.9
2023-12-24T09:12:16.354Z,9.9
2023-12-24T09:13:16.391Z,9.9
2023-12-24T09:14:16.411Z,9.9
2023-12-24T09:15:16.413Z,9.9
2023-12-24T09:16:17.521Z,9.9
2023-12-24T09:17:21.026Z,9.9
2023-12-24T09:18:23.560Z,9.9
2023-12-24T09:19:16.637Z,10
2023-12-24T09:20:16.668Z,10
2023-12-24T09:21:16.316Z,10
2023-12-24T09:22:16.460Z,10
2023-12-24T09:23:16.597Z,10
2023-12-24T09:24:16.469Z,10
2023-12-24T09:25:16.672Z,10
2023-12-24T09:26:16.343Z,10
2023-12-24T09:27:16.322Z,10
2023-12-24T09:28:16.306Z,10
2023-12-24T09:29:16.315Z,10
2023-12-24T09:30:16.347Z,10
2023-12-24T09:32:16.323Z,10
2023-12-24T09:33:16.429Z,10.1
2023-12-24T09:34:16.387Z,10.1
2023-12-24T09:35:16.368Z,10
2023-12-24T09:36:16.319Z,10.1
2023-12-24T09:37:17.672Z,10.1
2023-12-24T09:38:20.874Z,10.1
2023-12-24T09:39:16.319Z,10.1
2023-12-24T09:40:16.337Z,10.1
2023-12-24T09:41:16.316Z,10.1
2023-12-24T09:42:16.316Z,10.1
2023-12-24T09:43:16.318Z,10.1
2023-12-24T09:44:16.493Z,10.1
2023-12-24T09:45:16.329Z,10.1
2023-12-24T09:46:16.321Z,10.1
2023-12-24T09:47:16.325Z,10.1
2023-12-24T09:48:16.389Z,10.1
2023-12-24T09:49:16.330Z,10.1
2023-12-24T09:50:16.378Z,10.1
2023-12-24T09:51:16.348Z,10.1
2023-12-24T09:52:16.324Z,10.1
2023-12-24T09:53:16.339Z,10.1
2023-12-24T09:54:16.323Z,10.1
2023-12-24T09:55:16.331Z,10.1
2023-12-24T09:56:16.340Z,10.2
2023-12-24T09:57:16.306Z,10.2
2023-12-24T09:58:17.718Z,10.2
2023-12-24T09:59:20.934Z,10.2
2023-12-24T10:00:16.330Z,10.2
2023-12-24T10:01:16.378Z,10.2
2023-12-24T10:02:16.365Z,10.2
2023-12-24T10:03:16.333Z,10.2
2023-12-24T10:04:16.306Z,10.2
2023-12-24T10:05:16.836Z,10.2
2023-12-24T10:06:16.402Z,10.2
2023-12-24T10:07:16.333Z,10.2
2023-12-24T10:08:16.337Z,10.2
2023-12-24T10:09:16.308Z,10.2
2023-12-24T10:10:16.328Z,10.2
2023-12-24T10:11:16.338Z,10.2
2023-12-24T10:12:16.350Z,10.2
2023-12-24T10:13:16.311Z,10.2
2023-12-24T10:14:16.356Z,10.2
2023-12-24T10:15:16.312Z,10.2
2023-12-24T10:16:16.316Z,10.2
2023-12-24T10:17:16.395Z,10.2
2023-12-24T10:18:16.424Z,10.3
2023-12-24T10:19:17.955Z,10.3
2023-12-24T10:20:21.004Z,10.3
2023-12-24T10:22:16.310Z,10.3
2023-12-24T10:23:16.331Z,10.3
2023-12-24T10:24:16.308Z,10.3
2023-12-24T10:25:16.313Z,10.3
2023-12-24T10:26:16.336Z,10.3
2023-12-24T10:27:16.322Z,10.3
2023-12-24T10:28:16.309Z,10.3
2023-12-24T10:29:18.576Z,10.4
2023-12-24T10:30:16.515Z,10.4
2023-12-24T10:31:16.328Z,10.4
2023-12-24T10:32:16.326Z,10.4
2023-12-24T10:33:16.406Z,10.4
2023-12-24T10:34:16.371Z,10.4
2023-12-24T10:35:16.332Z,10.4
2023-12-24T10:36:16.310Z,10.4
2023-12-24T10:37:16.317Z,10.4
2023-12-24T10:38:16.316Z,10.4
2023-12-24T10:39:16.313Z,10.4
2023-12-24T10:40:16.315Z,10.5
2023-12-24T10:41:18.061Z,10.5
2023-12-24T10:42:21.175Z,10.5
2023-12-24T10:43:16.309Z,10.5
2023-12-24T10:44:16.338Z,10.5
2023-12-24T10:45:16.303Z,10.5
2023-12-24T10:46:16.307Z,10.6
2023-12-24T10:47:16.341Z,10.6
2023-12-24T10:48:16.430Z,10.6
2023-12-24T10:49:16.368Z,10.6
2023-12-24T10:50:16.333Z,10.6
2023-12-24T10:51:16.344Z,10.6
2023-12-24T10:52:16.312Z,10.6
2023-12-24T10:53:16.322Z,10.6
2023-12-24T10:54:16.347Z,10.6
2023-12-24T10:55:16.310Z,10.6
2023-12-24T10:56:16.445Z,10.6
2023-12-24T10:57:16.309Z,10.6
2023-12-24T10:58:16.322Z,10.6
2023-12-24T10:59:16.337Z,10.6
2023-12-24T11:00:16.333Z,10.6
2023-12-24T11:01:16.307Z,10.6
2023-12-24T11:02:18.210Z,10.6
2023-12-24T11:03:21.252Z,10.6
2023-12-24T11:04:16.334Z,10.6
2023-12-24T11:05:16.327Z,10.6
2023-12-24T11:06:16.420Z,10.6
2023-12-24T11:07:16.311Z,10.6
2023-12-24T11:08:16.333Z,10.6
2023-12-24T11:09:16.335Z,10.6
2023-12-24T11:11:16.324Z,10.6
2023-12-24T11:12:16.320Z,10.6
2023-12-24T11:13:16.431Z,10.6
2023-12-24T11:14:16.379Z,10.6
2023-12-24T11:15:16.318Z,10.6
2023-12-24T11:16:16.314Z,10.6
2023-12-24T11:17:16.325Z,10.6
2023-12-24T11:18:16.438Z,10.6
2023-12-24T11:19:16.359Z,10.6
2023-12-24T11:20:16.344Z,10.6
2023-12-24T11:21:16.325Z,10.6
2023-12-24T11:22:16.339Z,10.6
2023-12-24T11:23:18.351Z,10.6
2023-12-24T11:24:21.271Z,10.6
2023-12-24T11:25:16.321Z,10.6
2023-12-24T11:26:16.337Z,10.6
2023-12-24T11:27:16.317Z,10.6
2023-12-24T11:28:16.315Z,10.6
2023-12-24T11:29:16.332Z,10.6
2023-12-24T11:30:16.338Z,10.6
2023-12-24T11:31:16.318Z,10.6
2023-12-24T11:32:16.368Z,10.6
2023-12-24T11:33:16.429Z,10.6
2023-12-24T11:34:16.361Z,10.6
2023-12-24T11:35:16.346Z,10.6
2023-12-24T11:36:16.346Z,10.6
2023-12-24T11:37:16.315Z,10.6
2023-12-24T11:38:16.352Z,10.6
2023-12-24T11:39:16.332Z,10.6
2023-12-24T11:40:16.453Z,10.6
2023-12-24T11:41:16.325Z,10.6
2023-12-24T11:42:16.331Z,10.6
2023-12-24T11:43:16.313Z,10.6
2023-12-24T11:44:18.466Z,10.6
2023-12-24T11:45:21.449Z,10.6
2023-12-24T11:46:16.312Z,10.6
2023-12-24T11:47:16.333Z,10.6
2023-12-24T11:48:16.382Z,10.6
2023-12-24T11:49:16.373Z,10.6
2023-12-24T11:50:16.404Z,10.6
2023-12-24T11:51:16.308Z,10.6
2023-12-24T11:52:16.306Z,10.6
2023-12-24T11:53:16.321Z,10.6
2023-12-24T11:54:16.333Z,10.6
2023-12-24T11:55:16.317Z,10.6
2023-12-24T11:56:16.328Z,10.5
2023-12-24T11:57:16.325Z,10.6
2023-12-24T11:58:16.313Z,10.6
2023-12-24T11:59:16.327Z,10.6
2023-12-24T12:00:16.306Z,10.6
2023-12-24T12:01:16.679Z,10.5
2023-12-24T12:02:16.338Z,10.6
2023-12-24T12:03:17.718Z,10.6
2023-12-24T12:04:16.374Z,10.6
2023-12-24T12:05:18.676Z,10.6
2023-12-24T12:06:21.632Z,10.6
2023-12-24T12:07:16.313Z,10.6
2023-12-24T12:08:16.329Z,10.6
2023-12-24T12:09:18.078Z,10.6
2023-12-24T12:10:16.311Z,10.6
2023-12-24T12:11:16.338Z,10.6
2023-12-24T12:12:16.312Z,10.6
2023-12-24T12:13:16.311Z,10.6
2023-12-24T12:14:16.352Z,10.6
2023-12-24T12:15:16.308Z,10.6
2023-12-24T12:16:16.322Z,10.6
2023-12-24T12:17:16.341Z,10.6
2023-12-24T12:18:16.397Z,10.6
2023-12-24T12:19:16.335Z,10.6
2023-12-24T12:20:16.334Z,10.6
2023-12-24T12:21:16.340Z,10.6
2023-12-24T12:22:16.602Z,10.6
2023-12-24T12:23:16.588Z,10.6
2023-12-24T12:24:16.312Z,10.6
2023-12-24T12:25:16.317Z,10.6
2023-12-24T12:26:18.631Z,10.6
2023-12-24T12:27:21.472Z,10.6
2023-12-24T12:28:16.308Z,10.6
2023-12-24T12:29:16.356Z,10.6
2023-12-24T12:30:16.336Z,10.6
2023-12-24T12:31:16.319Z,10.6
2023-12-24T12:32:16.323Z,10.6
2023-12-24T12:33:16.425Z,10.6
2023-12-24T12:34:16.319Z,10.6
2023-12-24T12:35:16.463Z,10.6
2023-12-24T12:36:16.335Z,10.6
2023-12-24T12:37:16.331Z,10.6
2023-12-24T12:38:16.320Z,10.6
2023-12-24T12:39:16.328Z,10.6
2023-12-24T12:40:16.310Z,10.6
2023-12-24T12:41:16.328Z,10.6
2023-12-24T12:42:16.312Z,10.6
2023-12-24T12:43:16.662Z,10.6
2023-12-24T12:44:16.336Z,10.7
2023-12-24T12:45:16.332Z,10.6
2023-12-24T12:46:16.310Z,10.7
2023-12-24T12:47:18.641Z,10.7
2023-12-24T12:48:21.648Z,10.7
2023-12-24T12:49:16.347Z,10.7
2023-12-24T12:50:16.336Z,10.7
2023-12-24T12:51:16.306Z,10.7
2023-12-24T12:52:16.306Z,10.7
2023-12-24T12:53:16.314Z,10.7
2023-12-24T12:54:16.324Z,10.7
2023-12-24T12:55:16.336Z,10.7
2023-12-24T12:56:16.340Z,10.7
2023-12-24T12:57:16.316Z,10.7
2023-12-24T12:58:16.326Z,10.7
2023-12-24T12:59:16.362Z,10.7
2023-12-24T13:00:16.315Z,10.7
2023-12-24T13:01:16.341Z,10.7
2023-12-24T13:02:16.324Z,10.7
2023-12-24T13:03:16.333Z,10.7
2023-12-24T13:04:16.673Z,10.7
2023-12-24T13:05:16.331Z,10.7
2023-12-24T13:06:16.502Z,10.8
2023-12-24T13:07:16.313Z,10.8
2023-12-24T13:08:19.290Z,10.8
2023-12-24T13:09:21.656Z,10.8
2023-12-24T13:10:16.320Z,10.8
2023-12-24T13:11:16.449Z,10.8
2023-12-24T13:12:16.310Z,10.8
2023-12-24T13:13:16.333Z,10.8
2023-12-24T13:14:16.321Z,10.8
2023-12-24T13:15:16.318Z,10.8
2023-12-24T13:16:16.309Z,10.8
2023-12-24T13:17:16.343Z,10.8
2023-12-24T13:18:16.459Z,10.8
2023-12-24T13:19:16.366Z,10.8
2023-12-24T13:20:16.330Z,10.8
2023-12-24T13:21:16.320Z,10.8
2023-12-24T13:23:16.334Z,10.9
2023-12-24T13:24:16.311Z,10.9
2023-12-24T13:25:16.321Z,10.9
2023-12-24T13:26:16.348Z,10.9
2023-12-24T13:27:16.313Z,10.9
2023-12-24T13:28:16.312Z,10.9
2023-12-24T13:29:18.942Z,10.9
2023-12-24T13:30:21.783Z,10.9
2023-12-24T13:31:16.327Z,10.9
2023-12-24T13:32:16.328Z,10.9
2023-12-24T13:33:16.514Z,10.9
2023-12-24T13:34:16.333Z,10.9
2023-12-24T13:35:16.339Z,10.9
2023-12-24T13:36:16.318Z,10.9
2023-12-24T13:37:16.316Z,11
2023-12-24T13:38:16.341Z,11
2023-12-24T13:39:16.361Z,11
2023-12-24T13:40:16.315Z,11
2023-12-24T13:41:16.353Z,11
2023-12-24T13:42:16.310Z,11
2023-12-24T13:43:16.342Z,11
2023-12-24T13:44:16.418Z,11
2023-12-24T13:45:16.330Z,11
2023-12-24T13:46:16.313Z,11
2023-12-24T13:47:16.345Z,11
2023-12-24T13:48:16.501Z,11
2023-12-24T13:49:16.382Z,11
2023-12-24T13:50:18.975Z,11
2023-12-24T13:51:21.785Z,11
2023-12-24T13:52:16.308Z,10.9
2023-12-24T13:53:23.097Z,10.9